Language: 


Des rapports , des résumés tant et plus, au choix de chacun....


Données Historiques de Météogheer
Journalier Rapport pour Février 12, 2017 Unitée:  Les deux    Impériale   Métrique
Suivant Jour »
Journalier Hebdomadaire Mensuel Annuel Sur mesure
  Max: Min: Moyenne:
Température: 43.5 °F /  6.4 °C 34 °F /  1.1 °C 38.3 °F /  3.5 °C
Point de rosée: 42.1 °F /  5.6 °C 32.9 °F /  0.5 °C 37.2 °F /  2.9 °C
Humidité: 98% 93% 96%
Vent: 12.5mph /  20.1km/h - 5.3mph /  8.6km/h
Rafales: 14.8mph /  23.8km/h - -
Vent- - East
Pression: 30.2 in /  1022.9 hPa 30.1 in /  1018.2 hPa -
Pluie: 0 in /  0.0 mm    
Historical Graphs
 
 
Données tabulaires pour Février 12, 2017
Heure Température Point de rosée Pression Vent Vent Rafales Humidité Pluie Taux (Horaire) Conditions
00:02 34 °F /  1.1 °C 32.9 °F /  0.5 °C 30.1in /  1018.2hPa NNE 3.8mph /  6.1km/h 3.8mph /  6.1km/h 96% 0in /  0.0mm
00:07 34 °F /  1.1 °C 32.9 °F /  0.5 °C 30.1in /  1018.8hPa Calm   3.8mph /  6.1km/h 96% 0in /  0.0mm
00:12 34.2 °F /  1.2 °C 33.1 °F /  0.6 °C 30.1in /  1018.8hPa North 4.9mph /  7.9km/h 5.4mph /  8.7km/h 96% 0in /  0.0mm
00:17 34.2 °F /  1.2 °C 33.1 °F /  0.6 °C 30.1in /  1018.8hPa North 2.9mph /  4.7km/h 5.4mph /  8.7km/h 96% 0in /  0.0mm
00:22 34.2 °F /  1.2 °C 33.1 °F /  0.6 °C 30.1in /  1018.8hPa North 2.5mph /  4.0km/h 4.7mph /  7.6km/h 96% 0in /  0.0mm
00:27 34.2 °F /  1.2 °C 33.1 °F /  0.6 °C 30.1in /  1018.8hPa North 2.5mph /  4.0km/h 4.3mph /  6.9km/h 96% 0in /  0.0mm
00:32 34.2 °F /  1.2 °C 33.1 °F /  0.6 °C 30.1in /  1018.8hPa NNW 2.9mph /  4.7km/h 4.9mph /  7.9km/h 96% 0in /  0.0mm
00:37 34.2 °F /  1.2 °C 33.1 °F /  0.6 °C 30.1in /  1019.9hPa NNE 2.7mph /  4.3km/h 4.9mph /  7.9km/h 96% 0in /  0.0mm
00:42 34.3 °F /  1.3 °C 33.3 °F /  0.7 °C 30.1in /  1019.9hPa North 3.8mph /  6.1km/h 4.9mph /  7.9km/h 96% 0in /  0.0mm
00:47 34.3 °F /  1.3 °C 33.3 °F /  0.7 °C 30.1in /  1019.9hPa North 4.3mph /  6.9km/h 4.9mph /  7.9km/h 96% 0in /  0.0mm
00:52 34.3 °F /  1.3 °C 33.4 °F /  0.8 °C 30.1in /  1018.8hPa NNE 2.2mph /  3.5km/h 5.6mph /  9.0km/h 97% 0in /  0.0mm
00:57 34.3 °F /  1.3 °C 33.4 °F /  0.8 °C 30.1in /  1018.8hPa NNE 3.4mph /  5.5km/h 5.6mph /  9.0km/h 97% 0in /  0.0mm
01:02 34.3 °F /  1.3 °C 33.4 °F /  0.8 °C 30.1in /  1018.8hPa North 1.3mph /  2.1km/h 5.6mph /  9.0km/h 97% 0in /  0.0mm
01:07 34.3 °F /  1.3 °C 33.4 °F /  0.8 °C 30.1in /  1018.8hPa North 4.9mph /  7.9km/h 5.6mph /  9.0km/h 97% 0in /  0.0mm
01:12 34.3 °F /  1.3 °C 33.4 °F /  0.8 °C 30.1in /  1018.8hPa NE 4.3mph /  6.9km/h 5.8mph /  9.3km/h 97% 0in /  0.0mm
01:17 34.3 °F /  1.3 °C 33.4 °F /  0.8 °C 30.1in /  1018.8hPa NE 4.9mph /  7.9km/h 5.8mph /  9.3km/h 97% 0in /  0.0mm
01:22 34.3 °F /  1.3 °C 33.4 °F /  0.8 °C 30.1in /  1018.8hPa NE 5.6mph /  9.0km/h 6.3mph /  10.1km/h 97% 0in /  0.0mm
01:27 34.3 °F /  1.3 °C 33.4 °F /  0.8 °C 30.1in /  1018.8hPa NNE 4.3mph /  6.9km/h 6.3mph /  10.1km/h 97% 0in /  0.0mm
01:32 34.3 °F /  1.3 °C 33.8 °F /  1.0 °C 30.1in /  1018.8hPa NNE 3.6mph /  5.8km/h 6.5mph /  10.5km/h 98% 0in /  0.0mm
01:37 34.3 °F /  1.3 °C 33.8 °F /  1.0 °C 30.1in /  1018.8hPa NNE 2.5mph /  4.0km/h 6.5mph /  10.5km/h 98% 0in /  0.0mm
01:42 34.3 °F /  1.3 °C 33.8 °F /  1.0 °C 30.1in /  1018.8hPa Calm   4.9mph /  7.9km/h 98% 0in /  0.0mm
01:47 34.3 °F /  1.3 °C 33.8 °F /  1.0 °C 30.1in /  1018.8hPa NNE 5.4mph /  8.7km/h 5.4mph /  8.7km/h 98% 0in /  0.0mm
01:52 34.3 °F /  1.3 °C 33.8 °F /  1.0 °C 30.1in /  1018.8hPa NNW 2.5mph /  4.0km/h 5.6mph /  9.0km/h 98% 0in /  0.0mm
01:57 34.3 °F /  1.3 °C 33.8 °F /  1.0 °C 30.1in /  1018.8hPa ENE 3.1mph /  5.0km/h 5.6mph /  9.0km/h 98% 0in /  0.0mm
02:02 34.3 °F /  1.3 °C 33.8 °F /  1.0 °C 30.1in /  1018.8hPa North 3.4mph /  5.5km/h 4mph /  6.4km/h 98% 0in /  0.0mm
02:07 34.5 °F /  1.4 °C 34 °F /  1.1 °C 30.1in /  1018.8hPa NNE 1.3mph /  2.1km/h 4.3mph /  6.9km/h 98% 0in /  0.0mm
02:12 34.5 °F /  1.4 °C 34 °F /  1.1 °C 30.1in /  1018.8hPa NNE 3.1mph /  5.0km/h 4.3mph /  6.9km/h 98% 0in /  0.0mm
02:18 34.5 °F /  1.4 °C 34 °F /  1.1 °C 30.1in /  1018.8hPa NE 2.5mph /  4.0km/h 3.8mph /  6.1km/h 98% 0in /  0.0mm
02:23 34.5 °F /  1.4 °C 34 °F /  1.1 °C 30.1in /  1018.8hPa NE 2.7mph /  4.3km/h 5.4mph /  8.7km/h 98% 0in /  0.0mm
02:28 34.5 °F /  1.4 °C 34 °F /  1.1 °C 30.1in /  1018.8hPa North 3.1mph /  5.0km/h 5.4mph /  8.7km/h 98% 0in /  0.0mm
02:33 34.5 °F /  1.4 °C 34 °F /  1.1 °C 30.1in /  1018.8hPa NNE 4.9mph /  7.9km/h 5.6mph /  9.0km/h 98% 0in /  0.0mm
02:38 34.5 °F /  1.4 °C 34 °F /  1.1 °C 30.1in /  1018.8hPa NE 4.9mph /  7.9km/h 6mph /  9.7km/h 98% 0in /  0.0mm
02:43 34.5 °F /  1.4 °C 34.2 °F /  1.2 °C 30.1in /  1018.8hPa North 4mph /  6.4km/h 6.3mph /  10.1km/h 98% 0in /  0.0mm
02:48 34.5 °F /  1.4 °C 34.2 °F /  1.2 °C 30.1in /  1018.8hPa NNE 6.3mph /  10.1km/h 7.4mph /  11.9km/h 98% 0in /  0.0mm
02:53 34.5 °F /  1.4 °C 34.2 °F /  1.2 °C 30.1in /  1018.8hPa NE 2.9mph /  4.7km/h 7.4mph /  11.9km/h 98% 0in /  0.0mm
02:58 34.9 °F /  1.6 °C 34.3 °F /  1.3 °C 30.1in /  1018.8hPa NE 3.8mph /  6.1km/h 6.3mph /  10.1km/h 98% 0in /  0.0mm
03:03 34.9 °F /  1.6 °C 34.3 °F /  1.3 °C 30.1in /  1018.8hPa NE 2.7mph /  4.3km/h 5.8mph /  9.3km/h 98% 0in /  0.0mm
03:08 34.9 °F /  1.6 °C 34.3 °F /  1.3 °C 30.1in /  1018.8hPa Calm   4.7mph /  7.6km/h 98% 0in /  0.0mm
03:13 34.9 °F /  1.6 °C 34.3 °F /  1.3 °C 30.1in /  1018.8hPa NE 2.5mph /  4.0km/h 4.2mph /  6.8km/h 98% 0in /  0.0mm
03:18 34.9 °F /  1.6 °C 34.3 °F /  1.3 °C 30.1in /  1018.8hPa NE 4.3mph /  6.9km/h 4.9mph /  7.9km/h 98% 0in /  0.0mm
03:23 35.1 °F /  1.7 °C 34.5 °F /  1.4 °C 30.1in /  1018.8hPa NNE 4.3mph /  6.9km/h 4.9mph /  7.9km/h 98% 0in /  0.0mm
03:28 35.1 °F /  1.7 °C 34.5 °F /  1.4 °C 30.1in /  1018.8hPa NNE 4.3mph /  6.9km/h 6.5mph /  10.5km/h 98% 0in /  0.0mm
03:33 35.1 °F /  1.7 °C 34.5 °F /  1.4 °C 30.1in /  1018.8hPa NNE 6.5mph /  10.5km/h 6.5mph /  10.5km/h 98% 0in /  0.0mm
03:38 35.1 °F /  1.7 °C 34.5 °F /  1.4 °C 30.1in /  1018.2hPa NE 3.6mph /  5.8km/h 6.5mph /  10.5km/h 98% 0in /  0.0mm
03:43 35.1 °F /  1.7 °C 34.5 °F /  1.4 °C 30.1in /  1018.2hPa NE 5.8mph /  9.3km/h 6mph /  9.7km/h 98% 0in /  0.0mm
03:48 35.1 °F /  1.7 °C 34.5 °F /  1.4 °C 30.1in /  1018.2hPa NE 4.7mph /  7.6km/h 5.8mph /  9.3km/h 98% 0in /  0.0mm
03:53 35.1 °F /  1.7 °C 34.5 °F /  1.4 °C 30.1in /  1018.8hPa NE 4.3mph /  6.9km/h 6mph /  9.7km/h 98% 0in /  0.0mm
03:58 35.1 °F /  1.7 °C 34.5 °F /  1.4 °C 30.1in /  1018.8hPa NNE 4.9mph /  7.9km/h 6.7mph /  10.8km/h 98% 0in /  0.0mm
04:03 35.1 °F /  1.7 °C 34.5 °F /  1.4 °C 30.1in /  1018.8hPa NE 3.6mph /  5.8km/h 6.7mph /  10.8km/h 98% 0in /  0.0mm
04:08 35.1 °F /  1.7 °C 34.5 °F /  1.4 °C 30.1in /  1018.8hPa NE 4.3mph /  6.9km/h 6.3mph /  10.1km/h 98% 0in /  0.0mm
04:13 35.1 °F /  1.7 °C 34.5 °F /  1.4 °C 30.1in /  1018.8hPa NE 5.6mph /  9.0km/h 6.3mph /  10.1km/h 98% 0in /  0.0mm
04:18 35.1 °F /  1.7 °C 34.5 °F /  1.4 °C 30.1in /  1018.8hPa NE 5.8mph /  9.3km/h 6.3mph /  10.1km/h 98% 0in /  0.0mm
04:23 35.2 °F /  1.8 °C 34.7 °F /  1.5 °C 30.1in /  1018.8hPa NNE 4.7mph /  7.6km/h 6.3mph /  10.1km/h 98% 0in /  0.0mm
04:28 35.2 °F /  1.8 °C 34.7 °F /  1.5 °C 30.1in /  1018.8hPa North 3.4mph /  5.5km/h 6mph /  9.7km/h 98% 0in /  0.0mm
04:33 35.2 °F /  1.8 °C 34.7 °F /  1.5 °C 30.1in /  1018.8hPa NE 4mph /  6.4km/h 5.8mph /  9.3km/h 98% 0in /  0.0mm
04:38 35.2 °F /  1.8 °C 34.7 °F /  1.5 °C 30.1in /  1018.8hPa NE 2.7mph /  4.3km/h 5.4mph /  8.7km/h 98% 0in /  0.0mm
04:43 35.2 °F /  1.8 °C 34.7 °F /  1.5 °C 30.1in /  1018.8hPa NE 3.8mph /  6.1km/h 6.3mph /  10.1km/h 98% 0in /  0.0mm
04:48 35.2 °F /  1.8 °C 34.7 °F /  1.5 °C 30.1in /  1018.8hPa NE 4.7mph /  7.6km/h 6.3mph /  10.1km/h 98% 0in /  0.0mm
04:53 35.2 °F /  1.8 °C 34.7 °F /  1.5 °C 30.1in /  1018.2hPa NE 2.9mph /  4.7km/h 4.9mph /  7.9km/h 98% 0in /  0.0mm
04:59 35.2 °F /  1.8 °C 34.7 °F /  1.5 °C 30.1in /  1018.2hPa NE 3.8mph /  6.1km/h 4.9mph /  7.9km/h 98% 0in /  0.0mm
05:04 35.4 °F /  1.9 °C 34.9 °F /  1.6 °C 30.1in /  1018.2hPa ENE 6mph /  9.7km/h 6mph /  9.7km/h 98% 0in /  0.0mm
05:09 35.4 °F /  1.9 °C 34.9 °F /  1.6 °C 30.1in /  1018.2hPa NE 4.7mph /  7.6km/h 6mph /  9.7km/h 98% 0in /  0.0mm
05:14 35.4 °F /  1.9 °C 34.9 °F /  1.6 °C 30.1in /  1018.2hPa ENE 5.8mph /  9.3km/h 5.8mph /  9.3km/h 98% 0in /  0.0mm
05:19 35.4 °F /  1.9 °C 34.9 °F /  1.6 °C 30.1in /  1018.2hPa ENE 3.8mph /  6.1km/h 5.8mph /  9.3km/h 98% 0in /  0.0mm
05:24 35.4 °F /  1.9 °C 34.9 °F /  1.6 °C 30.1in /  1018.2hPa NE 2.9mph /  4.7km/h 5.8mph /  9.3km/h 98% 0in /  0.0mm
05:29 35.4 °F /  1.9 °C 34.9 °F /  1.6 °C 30.1in /  1018.2hPa NNW 2.2mph /  3.5km/h 4.7mph /  7.6km/h 98% 0in /  0.0mm
05:34 35.4 °F /  1.9 °C 34.9 °F /  1.6 °C 30.1in /  1018.2hPa ENE 2.7mph /  4.3km/h 4.7mph /  7.6km/h 98% 0in /  0.0mm
05:39 35.4 °F /  1.9 °C 34.9 °F /  1.6 °C 30.1in /  1018.8hPa NE 3.1mph /  5.0km/h 3.8mph /  6.1km/h 98% 0in /  0.0mm
05:44 35.2 °F /  1.8 °C 34.7 °F /  1.5 °C 30.1in /  1018.8hPa NE 2.5mph /  4.0km/h 3.8mph /  6.1km/h 98% 0in /  0.0mm
05:49 35.2 °F /  1.8 °C 34.7 °F /  1.5 °C 30.1in /  1018.8hPa Calm   4.3mph /  6.9km/h 98% 0in /  0.0mm
05:54 35.2 °F /  1.8 °C 34.7 °F /  1.5 °C 30.1in /  1018.8hPa NE 2.5mph /  4.0km/h 4.3mph /  6.9km/h 98% 0in /  0.0mm
05:59 35.4 °F /  1.9 °C 34.9 °F /  1.6 °C 30.1in /  1018.8hPa ENE 2.5mph /  4.0km/h 3.8mph /  6.1km/h 98% 0in /  0.0mm
06:04 35.4 °F /  1.9 °C 34.9 °F /  1.6 °C 30.1in /  1018.8hPa Calm   4.3mph /  6.9km/h 98% 0in /  0.0mm
06:09 35.4 °F /  1.9 °C 34.9 °F /  1.6 °C 30.1in /  1018.8hPa NE 3.8mph /  6.1km/h 4.3mph /  6.9km/h 98% 0in /  0.0mm
06:14 35.4 °F /  1.9 °C 34.9 °F /  1.6 °C 30.1in /  1018.8hPa NE 3.4mph /  5.5km/h 4.5mph /  7.2km/h 98% 0in /  0.0mm
06:19 35.4 °F /  1.9 °C 34.9 °F /  1.6 °C 30.1in /  1018.8hPa NNE 3.1mph /  5.0km/h 4.7mph /  7.6km/h 98% 0in /  0.0mm
06:24 35.4 °F /  1.9 °C 34.9 °F /  1.6 °C 30.1in /  1018.8hPa NE 2mph /  3.2km/h 4.7mph /  7.6km/h 98% 0in /  0.0mm
06:29 35.4 °F /  1.9 °C 34.9 °F /  1.6 °C 30.1in /  1018.8hPa ENE 2.7mph /  4.3km/h 4.5mph /  7.2km/h 98% 0in /  0.0mm
06:34 35.4 °F /  1.9 °C 34.9 °F /  1.6 °C 30.1in /  1018.8hPa ENE 2.2mph /  3.5km/h 3.8mph /  6.1km/h 98% 0in /  0.0mm
06:39 35.4 °F /  1.9 °C 34.9 °F /  1.6 °C 30.1in /  1018.8hPa Calm   3.6mph /  5.8km/h 98% 0in /  0.0mm
06:44 35.4 °F /  1.9 °C 34.9 °F /  1.6 °C 30.1in /  1018.8hPa ENE 2.5mph /  4.0km/h 3.4mph /  5.5km/h 98% 0in /  0.0mm
06:49 35.4 °F /  1.9 °C 34.9 °F /  1.6 °C 30.1in /  1018.8hPa East 2.5mph /  4.0km/h 4.3mph /  6.9km/h 98% 0in /  0.0mm
06:54 35.4 °F /  1.9 °C 34.9 °F /  1.6 °C 30.1in /  1018.8hPa NE 3.4mph /  5.5km/h 5.4mph /  8.7km/h 98% 0in /  0.0mm
06:59 35.4 °F /  1.9 °C 34.9 °F /  1.6 °C 30.1in /  1018.8hPa NE 3.4mph /  5.5km/h 5.4mph /  8.7km/h 98% 0in /  0.0mm
07:04 35.4 °F /  1.9 °C 34.9 °F /  1.6 °C 30.1in /  1018.8hPa ENE 2.9mph /  4.7km/h 4.3mph /  6.9km/h 98% 0in /  0.0mm
07:09 35.4 °F /  1.9 °C 34.9 °F /  1.6 °C 30.1in /  1018.8hPa ENE 3.1mph /  5.0km/h 4.9mph /  7.9km/h 98% 0in /  0.0mm
07:14 35.4 °F /  1.9 °C 35.1 °F /  1.7 °C 30.1in /  1018.8hPa NNE 4.3mph /  6.9km/h 4.9mph /  7.9km/h 98% 0in /  0.0mm
07:19 35.4 °F /  1.9 °C 35.1 °F /  1.7 °C 30.1in /  1018.8hPa ENE 4mph /  6.4km/h 4.3mph /  6.9km/h 98% 0in /  0.0mm
07:24 35.4 °F /  1.9 °C 35.1 °F /  1.7 °C 30.1in /  1018.8hPa East 1.1mph /  1.8km/h 4.3mph /  6.9km/h 98% 0in /  0.0mm
07:29 35.4 °F /  1.9 °C 35.1 °F /  1.7 °C 30.1in /  1018.8hPa East 4mph /  6.4km/h 4.3mph /  6.9km/h 98% 0in /  0.0mm
07:34 35.4 °F /  1.9 °C 35.1 °F /  1.7 °C 30.1in /  1018.8hPa East 4.3mph /  6.9km/h 5.6mph /  9.0km/h 98% 0in /  0.0mm
07:39 35.4 °F /  1.9 °C 35.1 °F /  1.7 °C 30.1in /  1018.8hPa ESE 3.6mph /  5.8km/h 5.6mph /  9.0km/h 98% 0in /  0.0mm
07:44 35.4 °F /  1.9 °C 35.1 °F /  1.7 °C 30.1in /  1018.8hPa ESE 4.9mph /  7.9km/h 5.6mph /  9.0km/h 98% 0in /  0.0mm
07:49 35.4 °F /  1.9 °C 35.1 °F /  1.7 °C 30.1in /  1018.8hPa ESE 3.8mph /  6.1km/h 5.6mph /  9.0km/h 98% 0in /  0.0mm
07:54 35.4 °F /  1.9 °C 35.1 °F /  1.7 °C 30.2in /  1020.9hPa East 4.3mph /  6.9km/h 5.4mph /  8.7km/h 98% 0in /  0.0mm
07:59 35.4 °F /  1.9 °C 35.1 °F /  1.7 °C 30.2in /  1020.9hPa East 4mph /  6.4km/h 5.4mph /  8.7km/h 98% 0in /  0.0mm
08:04 35.4 °F /  1.9 °C 35.1 °F /  1.7 °C 30.2in /  1020.9hPa East 3.8mph /  6.1km/h 5.4mph /  8.7km/h 98% 0in /  0.0mm
08:09 35.4 °F /  1.9 °C 35.1 °F /  1.7 °C 30.1in /  1019.9hPa East 2.7mph /  4.3km/h 4mph /  6.4km/h 98% 0in /  0.0mm
08:14 35.4 °F /  1.9 °C 35.1 °F /  1.7 °C 30.1in /  1019.9hPa SE 4.9mph /  7.9km/h 6mph /  9.7km/h 98% 0in /  0.0mm
08:19 35.4 °F /  1.9 °C 35.1 °F /  1.7 °C 30.1in /  1019.9hPa ENE 2.5mph /  4.0km/h 6mph /  9.7km/h 98% 0in /  0.0mm
08:24 35.4 °F /  1.9 °C 35.1 °F /  1.7 °C 30.2in /  1020.9hPa ENE 3.6mph /  5.8km/h 4.3mph /  6.9km/h 98% 0in /  0.0mm
08:30 35.4 °F /  1.9 °C 35.1 °F /  1.7 °C 30.2in /  1020.9hPa NE 3.6mph /  5.8km/h 4.3mph /  6.9km/h 98% 0in /  0.0mm
08:35 35.4 °F /  1.9 °C 35.1 °F /  1.7 °C 30.2in /  1020.9hPa East 3.6mph /  5.8km/h 4.3mph /  6.9km/h 98% 0in /  0.0mm
08:40 35.4 °F /  1.9 °C 35.1 °F /  1.7 °C 30.2in /  1020.9hPa ENE 1.6mph /  2.6km/h 4mph /  6.4km/h 98% 0in /  0.0mm
08:45 35.4 °F /  1.9 °C 35.1 °F /  1.7 °C 30.2in /  1020.9hPa ENE 2.5mph /  4.0km/h 5.4mph /  8.7km/h 98% 0in /  0.0mm
08:50 35.4 °F /  1.9 °C 35.1 °F /  1.7 °C 30.2in /  1020.9hPa Calm   5.4mph /  8.7km/h 98% 0in /  0.0mm
08:55 35.8 °F /  2.1 °C 35.2 °F /  1.8 °C 30.2in /  1021.9hPa ESE 3.1mph /  5.0km/h 4.3mph /  6.9km/h 98% 0in /  0.0mm
09:00 35.8 °F /  2.1 °C 35.2 °F /  1.8 °C 30.2in /  1021.9hPa ENE 4mph /  6.4km/h 4.3mph /  6.9km/h 98% 0in /  0.0mm
09:05 35.8 °F /  2.1 °C 35.2 °F /  1.8 °C 30.2in /  1021.9hPa East 5.4mph /  8.7km/h 5.6mph /  9.0km/h 98% 0in /  0.0mm
09:10 35.8 °F /  2.1 °C 35.2 °F /  1.8 °C 30.2in /  1020.9hPa East 4.9mph /  7.9km/h 6mph /  9.7km/h 98% 0in /  0.0mm
09:15 35.8 °F /  2.1 °C 35.2 °F /  1.8 °C 30.2in /  1020.9hPa NE 4.9mph /  7.9km/h 6mph /  9.7km/h 98% 0in /  0.0mm
09:20 36.1 °F /  2.3 °C 35.4 °F /  1.9 °C 30.2in /  1020.9hPa ENE 4.7mph /  7.6km/h 5.6mph /  9.0km/h 98% 0in /  0.0mm
09:25 36.1 °F /  2.3 °C 35.4 °F /  1.9 °C 30.2in /  1020.9hPa ENE 3.8mph /  6.1km/h 5.6mph /  9.0km/h 98% 0in /  0.0mm
09:30 36.1 °F /  2.3 °C 35.8 °F /  2.1 °C 30.2in /  1020.9hPa ENE 5.4mph /  8.7km/h 5.6mph /  9.0km/h 98% 0in /  0.0mm
09:35 36.1 °F /  2.3 °C 35.8 °F /  2.1 °C 30.2in /  1020.9hPa East 2.9mph /  4.7km/h 5.8mph /  9.3km/h 98% 0in /  0.0mm
09:40 36.1 °F /  2.3 °C 35.8 °F /  2.1 °C 30.1in /  1019.9hPa East 2.7mph /  4.3km/h 5.8mph /  9.3km/h 98% 0in /  0.0mm
09:45 36.1 °F /  2.3 °C 35.8 °F /  2.1 °C 30.1in /  1019.9hPa NE 5.4mph /  8.7km/h 6.3mph /  10.1km/h 98% 0in /  0.0mm
09:50 36.1 °F /  2.3 °C 35.8 °F /  2.1 °C 30.1in /  1019.9hPa East 3.8mph /  6.1km/h 6.3mph /  10.1km/h 98% 0in /  0.0mm
09:55 36.1 °F /  2.3 °C 35.8 °F /  2.1 °C 30.1in /  1019.9hPa NE 3.1mph /  5.0km/h 6.5mph /  10.5km/h 98% 0in /  0.0mm
10:00 36.7 °F /  2.6 °C 36.1 °F /  2.3 °C 30.1in /  1019.9hPa East 3.8mph /  6.1km/h 6.5mph /  10.5km/h 98% 0in /  0.0mm
10:05 36.9 °F /  2.7 °C 36.3 °F /  2.4 °C 30.1in /  1019.9hPa ESE 4mph /  6.4km/h 6mph /  9.7km/h 98% 0in /  0.0mm
10:10 36.9 °F /  2.7 °C 36.3 °F /  2.4 °C 30.2in /  1020.9hPa ESE 3.8mph /  6.1km/h 6.3mph /  10.1km/h 98% 0in /  0.0mm
10:15 36.9 °F /  2.7 °C 36.3 °F /  2.4 °C 30.2in /  1020.9hPa ESE 4mph /  6.4km/h 7.6mph /  12.2km/h 98% 0in /  0.0mm
10:20 36.9 °F /  2.7 °C 36.3 °F /  2.4 °C 30.2in /  1020.9hPa ENE 3.4mph /  5.5km/h 7.8mph /  12.6km/h 98% 0in /  0.0mm
10:25 36.9 °F /  2.7 °C 36.3 °F /  2.4 °C 30.2in /  1020.9hPa East 5.6mph /  9.0km/h 7.8mph /  12.6km/h 98% 0in /  0.0mm
10:31 36.9 °F /  2.7 °C 36.3 °F /  2.4 °C 30.2in /  1020.9hPa ESE 7.2mph /  11.6km/h 7.8mph /  12.6km/h 98% 0in /  0.0mm
10:36 36.9 °F /  2.7 °C 36.3 °F /  2.4 °C 30.2in /  1020.9hPa ESE 6mph /  9.7km/h 8.5mph /  13.7km/h 98% 0in /  0.0mm
10:41 37.2 °F /  2.9 °C 36.9 °F /  2.7 °C 30.2in /  1020.9hPa East 5.6mph /  9.0km/h 8.5mph /  13.7km/h 98% 0in /  0.0mm
10:46 38.5 °F /  3.6 °C 37.8 °F /  3.2 °C 30.2in /  1020.9hPa East 5.4mph /  8.7km/h 8.7mph /  14.0km/h 98% 0in /  0.0mm
10:51 38.5 °F /  3.6 °C 37.9 °F /  3.3 °C 30.2in /  1020.9hPa East 5.6mph /  9.0km/h 8.7mph /  14.0km/h 98% 0in /  0.0mm
10:56 38.5 °F /  3.6 °C 37.8 °F /  3.2 °C 30.2in /  1020.9hPa East 4.7mph /  7.6km/h 8.7mph /  14.0km/h 98% 0in /  0.0mm
11:01 38.5 °F /  3.6 °C 37.6 °F /  3.1 °C 30.2in /  1020.9hPa ESE 4mph /  6.4km/h 7.8mph /  12.6km/h 97% 0in /  0.0mm
11:06 38.5 °F /  3.6 °C 37.2 °F /  2.9 °C 30.2in /  1020.9hPa ESE 7.6mph /  12.2km/h 8.7mph /  14.0km/h 96% 0in /  0.0mm
11:11 38.5 °F /  3.6 °C 37 °F /  2.8 °C 30.2in /  1021.9hPa ESE 4mph /  6.4km/h 8.7mph /  14.0km/h 95% 0in /  0.0mm
11:16 38.5 °F /  3.6 °C 37.2 °F /  2.9 °C 30.2in /  1021.9hPa East 6mph /  9.7km/h 8.1mph /  13.0km/h 95% 0in /  0.0mm
11:21 38.5 °F /  3.6 °C 37 °F /  2.8 °C 30.2in /  1021.9hPa ESE 7.6mph /  12.2km/h 8.1mph /  13.0km/h 95% 0in /  0.0mm
11:26 37.9 °F /  3.3 °C 36.3 °F /  2.4 °C 30.2in /  1020.9hPa ESE 7.6mph /  12.2km/h 8.7mph /  14.0km/h 94% 0in /  0.0mm
11:31 37.8 °F /  3.2 °C 36.1 °F /  2.3 °C 30.2in /  1020.9hPa ESE 9.4mph /  15.1km/h 9.4mph /  15.1km/h 94% 0in /  0.0mm
11:36 37.6 °F /  3.1 °C 36.1 °F /  2.3 °C 30.2in /  1020.9hPa SE 4.9mph /  7.9km/h 9.4mph /  15.1km/h 94% 0in /  0.0mm
11:41 37.8 °F /  3.2 °C 36.5 °F /  2.5 °C 30.2in /  1021.9hPa East 3.4mph /  5.5km/h 8.7mph /  14.0km/h 95% 0in /  0.0mm
11:46 37.8 °F /  3.2 °C 36.5 °F /  2.5 °C 30.2in /  1021.9hPa ENE 2.7mph /  4.3km/h 6.5mph /  10.5km/h 95% 0in /  0.0mm
11:51 37.9 °F /  3.3 °C 36.7 °F /  2.6 °C 30.2in /  1021.9hPa ESE 4mph /  6.4km/h 6.5mph /  10.5km/h 95% 0in /  0.0mm
11:56 38.5 °F /  3.6 °C 37.2 °F /  2.9 °C 30.2in /  1021.9hPa ENE 4mph /  6.4km/h 8.7mph /  14.0km/h 96% 0in /  0.0mm
12:01 38.5 °F /  3.6 °C 37 °F /  2.8 °C 30.2in /  1021.9hPa East 5.6mph /  9.0km/h 8.7mph /  14.0km/h 95% 0in /  0.0mm
12:06 38.1 °F /  3.4 °C 36.9 °F /  2.7 °C 30.2in /  1021.9hPa NE 6.3mph /  10.1km/h 7.6mph /  12.2km/h 95% 0in /  0.0mm
12:11 38.1 °F /  3.4 °C 36.9 °F /  2.7 °C 30.2in /  1021.9hPa ENE 4.3mph /  6.9km/h 7.6mph /  12.2km/h 95% 0in /  0.0mm
12:16 38.5 °F /  3.6 °C 37 °F /  2.8 °C 30.2in /  1021.9hPa NE 5.8mph /  9.3km/h 7.4mph /  11.9km/h 95% 0in /  0.0mm
12:21 38.5 °F /  3.6 °C 37.2 °F /  2.9 °C 30.2in /  1021.9hPa ENE 4.3mph /  6.9km/h 8.1mph /  13.0km/h 96% 0in /  0.0mm
12:26 38.5 °F /  3.6 °C 37 °F /  2.8 °C 30.2in /  1020.9hPa ESE 4.9mph /  7.9km/h 8.1mph /  13.0km/h 95% 0in /  0.0mm
12:31 38.7 °F /  3.7 °C 37.8 °F /  3.2 °C 30.2in /  1020.9hPa ENE 5.4mph /  8.7km/h 8.5mph /  13.7km/h 96% 0in /  0.0mm
12:36 38.7 °F /  3.7 °C 37.4 °F /  3.0 °C 30.2in /  1020.9hPa ENE 4.3mph /  6.9km/h 8.5mph /  13.7km/h 95% 0in /  0.0mm
12:41 38.7 °F /  3.7 °C 37.4 °F /  3.0 °C 30.2in /  1020.9hPa ENE 3.4mph /  5.5km/h 8.7mph /  14.0km/h 95% 0in /  0.0mm
12:46 38.8 °F /  3.8 °C 37.6 °F /  3.1 °C 30.2in /  1020.9hPa East 4.9mph /  7.9km/h 8.7mph /  14.0km/h 95% 0in /  0.0mm
12:51 39 °F /  3.9 °C 37.6 °F /  3.1 °C 30.2in /  1020.9hPa NE 7.8mph /  12.6km/h 8.5mph /  13.7km/h 94% 0in /  0.0mm
12:56 39 °F /  3.9 °C 37.6 °F /  3.1 °C 30.2in /  1020.9hPa ENE 6.3mph /  10.1km/h 11.2mph /  18.0km/h 94% 0in /  0.0mm
13:01 39 °F /  3.9 °C 37.2 °F /  2.9 °C 30.2in /  1020.9hPa ENE 6.3mph /  10.1km/h 11.2mph /  18.0km/h 93% 0in /  0.0mm
13:06 38.8 °F /  3.8 °C 37 °F /  2.8 °C 30.2in /  1020.9hPa ENE 5.8mph /  9.3km/h 9.8mph /  15.8km/h 93% 0in /  0.0mm
13:11 39 °F /  3.9 °C 37.2 °F /  2.9 °C 30.2in /  1020.9hPa ENE 8.1mph /  13.0km/h 8.7mph /  14.0km/h 93% 0in /  0.0mm
13:16 39.2 °F /  4.0 °C 37.4 °F /  3.0 °C 30.2in /  1020.9hPa NE 5.8mph /  9.3km/h 8.7mph /  14.0km/h 93% 0in /  0.0mm
13:21 39.2 °F /  4.0 °C 37.4 °F /  3.0 °C 30.2in /  1020.9hPa East 5.6mph /  9.0km/h 9.6mph /  15.4km/h 93% 0in /  0.0mm
13:26 39.4 °F /  4.1 °C 37.6 °F /  3.1 °C 30.2in /  1020.9hPa ENE 7.8mph /  12.6km/h 9.6mph /  15.4km/h 93% 0in /  0.0mm
13:31 39.6 °F /  4.2 °C 37.8 °F /  3.2 °C 30.2in /  1020.9hPa East 7.4mph /  11.9km/h 10.5mph /  16.9km/h 93% 0in /  0.0mm
13:36 39.7 °F /  4.3 °C 37.9 °F /  3.3 °C 30.2in /  1020.9hPa North 7.8mph /  12.6km/h 10.5mph /  16.9km/h 93% 0in /  0.0mm
13:41 39.7 °F /  4.3 °C 37.9 °F /  3.3 °C 30.2in /  1020.9hPa ENE 8.7mph /  14.0km/h 10.5mph /  16.9km/h 93% 0in /  0.0mm
13:46 39.9 °F /  4.4 °C 38.1 °F /  3.4 °C 30.2in /  1020.9hPa NE 5.8mph /  9.3km/h 10.5mph /  16.9km/h 93% 0in /  0.0mm
13:52 39.9 °F /  4.4 °C 38.1 °F /  3.4 °C 30.2in /  1020.9hPa ENE 7.8mph /  12.6km/h 11mph /  17.7km/h 93% 0in /  0.0mm
13:57 40.3 °F /  4.6 °C 38.7 °F /  3.7 °C 30.2in /  1021.9hPa NE 6.5mph /  10.5km/h 11mph /  17.7km/h 94% 0in /  0.0mm
14:02 40.5 °F /  4.7 °C 38.8 °F /  3.8 °C 30.2in /  1021.9hPa NE 7.8mph /  12.6km/h 10.5mph /  16.9km/h 94% 0in /  0.0mm
14:07 40.5 °F /  4.7 °C 38.8 °F /  3.8 °C 30.2in /  1021.9hPa ENE 7.6mph /  12.2km/h 10.1mph /  16.3km/h 94% 0in /  0.0mm
14:12 40.5 °F /  4.7 °C 38.8 °F /  3.8 °C 30.1in /  1019.9hPa East 8.1mph /  13.0km/h 10.1mph /  16.3km/h 94% 0in /  0.0mm
14:17 40.5 °F /  4.7 °C 38.8 °F /  3.8 °C 30.1in /  1019.9hPa ENE 9.8mph /  15.8km/h 11mph /  17.7km/h 94% 0in /  0.0mm
14:22 40.5 °F /  4.7 °C 38.8 °F /  3.8 °C 30.1in /  1019.9hPa East 10.7mph /  17.2km/h 11mph /  17.7km/h 94% 0in /  0.0mm
14:27 40.5 °F /  4.7 °C 38.8 °F /  3.8 °C 30.1in /  1019.9hPa ESE 5.6mph /  9.0km/h 11mph /  17.7km/h 94% 0in /  0.0mm
14:32 40.6 °F /  4.8 °C 39 °F /  3.9 °C 30.1in /  1019.9hPa East 8.5mph /  13.7km/h 11mph /  17.7km/h 94% 0in /  0.0mm
14:37 40.8 °F /  4.9 °C 39.2 °F /  4.0 °C 30.2in /  1020.9hPa NE 9.8mph /  15.8km/h 12.1mph /  19.5km/h 94% 0in /  0.0mm
14:42 40.8 °F /  4.9 °C 39.2 °F /  4.0 °C 30.2in /  1020.9hPa ESE 7.4mph /  11.9km/h 12.1mph /  19.5km/h 94% 0in /  0.0mm
14:47 41 °F /  5.0 °C 39.4 °F /  4.1 °C 30.2in /  1020.9hPa ENE 10.1mph /  16.3km/h 12.1mph /  19.5km/h 94% 0in /  0.0mm
14:52 41 °F /  5.0 °C 39.4 °F /  4.1 °C 30.2in /  1020.9hPa NE 7.6mph /  12.2km/h 12.1mph /  19.5km/h 94% 0in /  0.0mm
14:57 41 °F /  5.0 °C 39.4 °F /  4.1 °C 30.2in /  1020.9hPa ENE 8.5mph /  13.7km/h 14.8mph /  23.8km/h 94% 0in /  0.0mm
15:02 41.2 °F /  5.1 °C 39.6 °F /  4.2 °C 30.2in /  1020.9hPa East 5.8mph /  9.3km/h 14.8mph /  23.8km/h 94% 0in /  0.0mm
15:07 41.4 °F /  5.2 °C 39.9 °F /  4.4 °C 30.2in /  1020.9hPa East 7.4mph /  11.9km/h 12.8mph /  20.6km/h 95% 0in /  0.0mm
15:12 41.7 °F /  5.4 °C 40.5 °F /  4.7 °C 30.2in /  1020.9hPa East 9.8mph /  15.8km/h 10.3mph /  16.6km/h 95% 0in /  0.0mm
15:17 42.1 °F /  5.6 °C 40.6 °F /  4.8 °C 30.2in /  1020.9hPa ENE 8.1mph /  13.0km/h 10.3mph /  16.6km/h 95% 0in /  0.0mm
15:22 42.3 °F /  5.7 °C 40.8 °F /  4.9 °C 30.2in /  1020.9hPa East 8.9mph /  14.3km/h 12.1mph /  19.5km/h 95% 0in /  0.0mm
15:27 42.3 °F /  5.7 °C 40.8 °F /  4.9 °C 30.2in /  1020.9hPa NE 7.6mph /  12.2km/h 12.1mph /  19.5km/h 95% 0in /  0.0mm
15:32 42.6 °F /  5.9 °C 41 °F /  5.0 °C 30.2in /  1020.9hPa NE 7.8mph /  12.6km/h 13mph /  20.9km/h 94% 0in /  0.0mm
15:37 42.6 °F /  5.9 °C 41 °F /  5.0 °C 30.2in /  1020.9hPa East 10.7mph /  17.2km/h 13mph /  20.9km/h 94% 0in /  0.0mm
15:42 43 °F /  6.1 °C 41.4 °F /  5.2 °C 30.2in /  1020.9hPa East 8.1mph /  13.0km/h 12.5mph /  20.1km/h 94% 0in /  0.0mm
15:47 43 °F /  6.1 °C 41.4 °F /  5.2 °C 30.2in /  1020.9hPa East 10.5mph /  16.9km/h 12.5mph /  20.1km/h 94% 0in /  0.0mm
15:52 42.8 °F /  6.0 °C 40.8 °F /  4.9 °C 30.2in /  1020.9hPa East 7.8mph /  12.6km/h 12.5mph /  20.1km/h 93% 0in /  0.0mm
15:57 42.6 °F /  5.9 °C 40.6 °F /  4.8 °C 30.2in /  1020.9hPa East 7.2mph /  11.6km/h 12.5mph /  20.1km/h 93% 0in /  0.0mm
16:02 42.6 °F /  5.9 °C 40.6 °F /  4.8 °C 30.2in /  1020.9hPa East 5.8mph /  9.3km/h 10.7mph /  17.2km/h 93% 0in /  0.0mm
16:07 42.8 °F /  6.0 °C 40.8 °F /  4.9 °C 30.2in /  1020.9hPa East 8.1mph /  13.0km/h 9.4mph /  15.1km/h 93% 0in /  0.0mm
16:12 42.8 °F /  6.0 °C 41.2 °F /  5.1 °C 30.2in /  1020.9hPa NE 10.7mph /  17.2km/h 10.7mph /  17.2km/h 94% 0in /  0.0mm
16:17 43 °F /  6.1 °C 41.4 °F /  5.2 °C 30.2in /  1020.9hPa East 8.1mph /  13.0km/h 13mph /  20.9km/h 94% 0in /  0.0mm
16:22 43.2 °F /  6.2 °C 41.5 °F /  5.3 °C 30.2in /  1020.9hPa NE 8.7mph /  14.0km/h 13mph /  20.9km/h 94% 0in /  0.0mm
16:27 43.2 °F /  6.2 °C 41.5 °F /  5.3 °C 30.2in /  1020.9hPa East 7.4mph /  11.9km/h 11mph /  17.7km/h 94% 0in /  0.0mm
16:33 43.2 °F /  6.2 °C 41.5 °F /  5.3 °C 30.2in /  1020.9hPa NE 10.5mph /  16.9km/h 11mph /  17.7km/h 94% 0in /  0.0mm
16:38 43.3 °F /  6.3 °C 41.7 °F /  5.4 °C 30.2in /  1020.9hPa East 6.5mph /  10.5km/h 10.5mph /  16.9km/h 94% 0in /  0.0mm
16:43 43.5 °F /  6.4 °C 41.9 °F /  5.5 °C 30.2in /  1020.9hPa East 8.5mph /  13.7km/h 11.2mph /  18.0km/h 94% 0in /  0.0mm
16:48 43.5 °F /  6.4 °C 41.9 °F /  5.5 °C 30.2in /  1020.9hPa East 7.8mph /  12.6km/h 11.2mph /  18.0km/h 94% 0in /  0.0mm
16:53 43.5 °F /  6.4 °C 41.9 °F /  5.5 °C 30.2in /  1020.9hPa ENE 6mph /  9.7km/h 10.7mph /  17.2km/h 94% 0in /  0.0mm
16:58 43.5 °F /  6.4 °C 41.9 °F /  5.5 °C 30.2in /  1020.9hPa East 7.2mph /  11.6km/h 9.4mph /  15.1km/h 94% 0in /  0.0mm
17:03 43.5 °F /  6.4 °C 41.9 °F /  5.5 °C 30.2in /  1020.9hPa ENE 4.9mph /  7.9km/h 9.4mph /  15.1km/h 94% 0in /  0.0mm
17:08 43.5 °F /  6.4 °C 42.1 °F /  5.6 °C 30.2in /  1020.9hPa ENE 5.4mph /  8.7km/h 8.1mph /  13.0km/h 94% 0in /  0.0mm
17:13 43.5 °F /  6.4 °C 42.1 °F /  5.6 °C 30.2in /  1020.9hPa East 4.7mph /  7.6km/h 8.1mph /  13.0km/h 94% 0in /  0.0mm
17:18 43.5 °F /  6.4 °C 41.9 °F /  5.5 °C 30.2in /  1020.9hPa East 7.6mph /  12.2km/h 9.8mph /  15.8km/h 94% 0in /  0.0mm
17:23 43.5 °F /  6.4 °C 41.9 °F /  5.5 °C 30.2in /  1020.9hPa NE 4.9mph /  7.9km/h 9.8mph /  15.8km/h 94% 0in /  0.0mm
17:28 43.5 °F /  6.4 °C 41.9 °F /  5.5 °C 30.2in /  1020.9hPa NE 4.9mph /  7.9km/h 7.8mph /  12.6km/h 94% 0in /  0.0mm
17:33 43.3 °F /  6.3 °C 41.7 °F /  5.4 °C 30.2in /  1020.9hPa East 5.8mph /  9.3km/h 7.8mph /  12.6km/h 94% 0in /  0.0mm
17:38 43 °F /  6.1 °C 41.4 °F /  5.2 °C 30.2in /  1020.9hPa NE 4.3mph /  6.9km/h 7.8mph /  12.6km/h 94% 0in /  0.0mm
17:43 42.8 °F /  6.0 °C 41.2 °F /  5.1 °C 30.2in /  1020.9hPa NE 3.1mph /  5.0km/h 6.5mph /  10.5km/h 94% 0in /  0.0mm
17:48 42.6 °F /  5.9 °C 41 °F /  5.0 °C 30.2in /  1020.9hPa ENE 3.4mph /  5.5km/h 8.5mph /  13.7km/h 94% 0in /  0.0mm
17:53 42.6 °F /  5.9 °C 41 °F /  5.0 °C 30.2in /  1020.9hPa ENE 6.3mph /  10.1km/h 8.5mph /  13.7km/h 94% 0in /  0.0mm
17:58 42.6 °F /  5.9 °C 41 °F /  5.0 °C 30.2in /  1020.9hPa ENE 5.8mph /  9.3km/h 7.6mph /  12.2km/h 94% 0in /  0.0mm
18:03 42.4 °F /  5.8 °C 41.2 °F /  5.1 °C 30.2in /  1020.9hPa ENE 3.6mph /  5.8km/h 7.8mph /  12.6km/h 95% 0in /  0.0mm
18:08 42.4 °F /  5.8 °C 41.2 °F /  5.1 °C 30.2in /  1020.9hPa NE 6.5mph /  10.5km/h 7.8mph /  12.6km/h 95% 0in /  0.0mm
18:13 42.4 °F /  5.8 °C 41.2 °F /  5.1 °C 30.2in /  1020.9hPa NE 6mph /  9.7km/h 6.7mph /  10.8km/h 95% 0in /  0.0mm
18:18 42.4 °F /  5.8 °C 41.2 °F /  5.1 °C 30.2in /  1020.9hPa East 4.7mph /  7.6km/h 8.5mph /  13.7km/h 95% 0in /  0.0mm
18:23 42.4 °F /  5.8 °C 41.4 °F /  5.2 °C 30.2in /  1020.9hPa ENE 7.8mph /  12.6km/h 8.5mph /  13.7km/h 96% 0in /  0.0mm
18:28 42.4 °F /  5.8 °C 41.4 °F /  5.2 °C 30.2in /  1020.9hPa ENE 6.5mph /  10.5km/h 9.6mph /  15.4km/h 96% 0in /  0.0mm
18:33 42.3 °F /  5.7 °C 41.2 °F /  5.1 °C 30.2in /  1020.9hPa NE 4.9mph /  7.9km/h 10.7mph /  17.2km/h 96% 0in /  0.0mm
18:38 42.1 °F /  5.6 °C 40.6 °F /  4.8 °C 30.2in /  1020.9hPa East 4.9mph /  7.9km/h 10.7mph /  17.2km/h 95% 0in /  0.0mm
18:43 42.1 °F /  5.6 °C 41 °F /  5.0 °C 30.2in /  1020.9hPa ENE 7.6mph /  12.2km/h 9.2mph /  14.8km/h 96% 0in /  0.0mm
18:48 42.1 °F /  5.6 °C 41 °F /  5.0 °C 30.2in /  1020.9hPa ENE 7.4mph /  11.9km/h 8.7mph /  14.0km/h 96% 0in /  0.0mm
18:53 41.9 °F /  5.5 °C 40.8 °F /  4.9 °C 30.2in /  1021.9hPa NE 6mph /  9.7km/h 8.7mph /  14.0km/h 96% 0in /  0.0mm
18:58 41.9 °F /  5.5 °C 40.8 °F /  4.9 °C 30.2in /  1021.9hPa East 5.4mph /  8.7km/h 8.7mph /  14.0km/h 96% 0in /  0.0mm
19:03 41.7 °F /  5.4 °C 40.6 °F /  4.8 °C 30.2in /  1021.9hPa ENE 6.5mph /  10.5km/h 10.7mph /  17.2km/h 96% 0in /  0.0mm
19:08 41.7 °F /  5.4 °C 40.6 °F /  4.8 °C 30.2in /  1020.9hPa East 7.4mph /  11.9km/h 10.7mph /  17.2km/h 96% 0in /  0.0mm
19:13 41.5 °F /  5.3 °C 40.5 °F /  4.7 °C 30.2in /  1020.9hPa ENE 5.8mph /  9.3km/h 8.7mph /  14.0km/h 96% 0in /  0.0mm
19:18 41.5 °F /  5.3 °C 40.5 °F /  4.7 °C 30.2in /  1020.9hPa East 6.7mph /  10.8km/h 10.7mph /  17.2km/h 96% 0in /  0.0mm
19:19 41.5 °F /  5.3 °C 40.5 °F /  4.7 °C 30.2in /  1020.9hPa East 7.6mph /  12.2km/h 10.7mph /  17.2km/h 96% 0in /  0.0mm
19:24 41.5 °F /  5.3 °C 40.5 °F /  4.7 °C 30.2in /  1020.9hPa NE 8.7mph /  14.0km/h 10.7mph /  17.2km/h 96% 0in /  0.0mm
19:29 41.5 °F /  5.3 °C 40.5 °F /  4.7 °C 30.2in /  1020.9hPa ENE 9.6mph /  15.4km/h 10.7mph /  17.2km/h 96% 0in /  0.0mm
19:34 41.5 °F /  5.3 °C 40.5 °F /  4.7 °C 30.2in /  1020.9hPa ENE 12.5mph /  20.1km/h 13mph /  20.9km/h 96% 0in /  0.0mm
19:39 41.5 °F /  5.3 °C 40.5 °F /  4.7 °C 30.2in /  1021.9hPa East 8.5mph /  13.7km/h 13mph /  20.9km/h 96% 0in /  0.0mm
19:44 41.5 °F /  5.3 °C 40.5 °F /  4.7 °C 30.2in /  1021.9hPa ENE 9.8mph /  15.8km/h 12.3mph /  19.8km/h 96% 0in /  0.0mm
19:49 41.5 °F /  5.3 °C 40.3 °F /  4.6 °C 30.2in /  1021.9hPa NE 7.8mph /  12.6km/h 12.3mph /  19.8km/h 95% 0in /  0.0mm
19:54 41.5 °F /  5.3 °C 40.3 °F /  4.6 °C 30.2in /  1021.9hPa ENE 11.4mph /  18.3km/h 13mph /  20.9km/h 95% 0in /  0.0mm
19:59 41.5 °F /  5.3 °C 40.3 °F /  4.6 °C 30.2in /  1021.9hPa ENE 10.3mph /  16.6km/h 13mph /  20.9km/h 95% 0in /  0.0mm
20:04 41.4 °F /  5.2 °C 39.9 °F /  4.4 °C 30.2in /  1021.9hPa ENE 8.7mph /  14.0km/h 12.1mph /  19.5km/h 95% 0in /  0.0mm
20:09 41.4 °F /  5.2 °C 39.9 °F /  4.4 °C 30.2in /  1021.9hPa ENE 8.7mph /  14.0km/h 13.2mph /  21.2km/h 95% 0in /  0.0mm
20:14 41.4 °F /  5.2 °C 39.9 °F /  4.4 °C 30.2in /  1021.9hPa NE 7.6mph /  12.2km/h 13.2mph /  21.2km/h 95% 0in /  0.0mm
20:19 41.4 °F /  5.2 °C 39.9 °F /  4.4 °C 30.2in /  1021.9hPa East 7.4mph /  11.9km/h 10.5mph /  16.9km/h 95% 0in /  0.0mm
20:24 41.4 °F /  5.2 °C 39.9 °F /  4.4 °C 30.2in /  1021.9hPa East 5.6mph /  9.0km/h 10.5mph /  16.9km/h 95% 0in /  0.0mm
20:29 41.2 °F /  5.1 °C 39.7 °F /  4.3 °C 30.2in /  1021.9hPa ENE 7.8mph /  12.6km/h 10.5mph /  16.9km/h 95% 0in /  0.0mm
20:34 41.2 °F /  5.1 °C 39.7 °F /  4.3 °C 30.2in /  1021.9hPa NE 9.4mph /  15.1km/h 10.7mph /  17.2km/h 95% 0in /  0.0mm
20:39 41.2 °F /  5.1 °C 39.7 °F /  4.3 °C 30.2in /  1021.9hPa East 7.8mph /  12.6km/h 10.7mph /  17.2km/h 95% 0in /  0.0mm
20:44 41 °F /  5.0 °C 39.7 °F /  4.3 °C 30.2in /  1021.9hPa ENE 9.8mph /  15.8km/h 9.8mph /  15.8km/h 95% 0in /  0.0mm
20:49 41 °F /  5.0 °C 39.7 °F /  4.3 °C 30.2in /  1021.9hPa NE 8.5mph /  13.7km/h 10.5mph /  16.9km/h 95% 0in /  0.0mm
20:54 41 °F /  5.0 °C 39.7 °F /  4.3 °C 30.2in /  1021.9hPa ENE 8.5mph /  13.7km/h 10.5mph /  16.9km/h 95% 0in /  0.0mm
20:59 41 °F /  5.0 °C 39.7 °F /  4.3 °C 30.2in /  1021.9hPa ENE 3.1mph /  5.0km/h 10.5mph /  16.9km/h 95% 0in /  0.0mm
21:04 40.8 °F /  4.9 °C 39.6 °F /  4.2 °C 30.2in /  1021.9hPa NNE 8.9mph /  14.3km/h 9.2mph /  14.8km/h 95% 0in /  0.0mm
21:09 40.8 °F /  4.9 °C 39.6 °F /  4.2 °C 30.2in /  1021.9hPa ENE 7.6mph /  12.2km/h 8.9mph /  14.3km/h 95% 0in /  0.0mm
21:14 40.8 °F /  4.9 °C 39.6 °F /  4.2 °C 30.2in /  1021.9hPa East 7.6mph /  12.2km/h 10.5mph /  16.9km/h 95% 0in /  0.0mm
21:19 40.8 °F /  4.9 °C 39.6 °F /  4.2 °C 30.2in /  1021.9hPa East 6.5mph /  10.5km/h 10.5mph /  16.9km/h 95% 0in /  0.0mm
21:24 40.8 °F /  4.9 °C 39.6 °F /  4.2 °C 30.2in /  1021.9hPa East 5.4mph /  8.7km/h 8.7mph /  14.0km/h 95% 0in /  0.0mm
21:29 40.8 °F /  4.9 °C 39.6 °F /  4.2 °C 30.2in /  1021.9hPa NE 10.1mph /  16.3km/h 10.1mph /  16.3km/h 95% 0in /  0.0mm
21:34 40.8 °F /  4.9 °C 39.6 °F /  4.2 °C 30.2in /  1021.9hPa ENE 7.4mph /  11.9km/h 10.1mph /  16.3km/h 95% 0in /  0.0mm
21:39 40.6 °F /  4.8 °C 39.6 °F /  4.2 °C 30.2in /  1021.9hPa ENE 9.2mph /  14.8km/h 9.2mph /  14.8km/h 96% 0in /  0.0mm
21:44 40.6 °F /  4.8 °C 39.6 °F /  4.2 °C 30.2in /  1021.9hPa ENE 5.8mph /  9.3km/h 9.2mph /  14.8km/h 96% 0in /  0.0mm
21:49 40.6 °F /  4.8 °C 39.6 °F /  4.2 °C 30.2in /  1021.9hPa East 3.8mph /  6.1km/h 8.9mph /  14.3km/h 96% 0in /  0.0mm
21:54 40.5 °F /  4.7 °C 39 °F /  3.9 °C 30.2in /  1021.9hPa ENE 6mph /  9.7km/h 8.5mph /  13.7km/h 95% 0in /  0.0mm
21:59 40.5 °F /  4.7 °C 39 °F /  3.9 °C 30.2in /  1021.9hPa East 8.1mph /  13.0km/h 8.5mph /  13.7km/h 95% 0in /  0.0mm
22:04 40.3 °F /  4.6 °C 39 °F /  3.9 °C 30.2in /  1021.9hPa ENE 7.4mph /  11.9km/h 8.7mph /  14.0km/h 95% 0in /  0.0mm
22:09 40.1 °F /  4.5 °C 38.8 °F /  3.8 °C 30.2in /  1021.9hPa ENE 5.4mph /  8.7km/h 8.7mph /  14.0km/h 95% 0in /  0.0mm
22:14 40.1 °F /  4.5 °C 39 °F /  3.9 °C 30.2in /  1021.9hPa NE 8.7mph /  14.0km/h 9.2mph /  14.8km/h 96% 0in /  0.0mm
22:19 40.3 °F /  4.6 °C 39.2 °F /  4.0 °C 30.2in /  1021.9hPa ENE 8.7mph /  14.0km/h 9.6mph /  15.4km/h 96% 0in /  0.0mm
22:24 40.1 °F /  4.5 °C 39 °F /  3.9 °C 30.2in /  1022.9hPa ENE 5.4mph /  8.7km/h 9.6mph /  15.4km/h 96% 0in /  0.0mm
22:29 40.1 °F /  4.5 °C 39 °F /  3.9 °C 30.2in /  1022.9hPa ENE 4.3mph /  6.9km/h 8.9mph /  14.3km/h 96% 0in /  0.0mm
22:35 40.1 °F /  4.5 °C 39 °F /  3.9 °C 30.2in /  1022.9hPa ENE 4.9mph /  7.9km/h 7.8mph /  12.6km/h 96% 0in /  0.0mm
22:40 40.1 °F /  4.5 °C 39 °F /  3.9 °C 30.2in /  1022.9hPa ENE 5.6mph /  9.0km/h 8.5mph /  13.7km/h 96% 0in /  0.0mm
22:45 39.9 °F /  4.4 °C 38.8 °F /  3.8 °C 30.2in /  1022.9hPa NE 4mph /  6.4km/h 8.9mph /  14.3km/h 96% 0in /  0.0mm
22:50 39.7 °F /  4.3 °C 38.7 °F /  3.7 °C 30.2in /  1022.9hPa East 5.4mph /  8.7km/h 8.9mph /  14.3km/h 96% 0in /  0.0mm
22:55 39.7 °F /  4.3 °C 38.7 °F /  3.7 °C 30.2in /  1022.9hPa ENE 5.8mph /  9.3km/h 8.1mph /  13.0km/h 96% 0in /  0.0mm
23:00 39.6 °F /  4.2 °C 38.5 °F /  3.6 °C 30.2in /  1022.9hPa East 5.4mph /  8.7km/h 8.1mph /  13.0km/h 96% 0in /  0.0mm
23:05 39.4 °F /  4.1 °C 38.5 °F /  3.6 °C 30.2in /  1022.9hPa ENE 5.4mph /  8.7km/h 7.4mph /  11.9km/h 96% 0in /  0.0mm
23:10 39.4 °F /  4.1 °C 38.5 °F /  3.6 °C 30.2in /  1022.9hPa NE 4.7mph /  7.6km/h 8.1mph /  13.0km/h 96% 0in /  0.0mm
23:15 39.4 °F /  4.1 °C 38.5 °F /  3.6 °C 30.2in /  1022.9hPa East 4mph /  6.4km/h 8.1mph /  13.0km/h 96% 0in /  0.0mm
23:20 39.2 °F /  4.0 °C 38.1 °F /  3.4 °C 30.2in /  1022.9hPa ENE 5.4mph /  8.7km/h 7.2mph /  11.6km/h 96% 0in /  0.0mm
23:25 39.4 °F /  4.1 °C 38.5 °F /  3.6 °C 30.2in /  1022.9hPa East 4.9mph /  7.9km/h 7.6mph /  12.2km/h 96% 0in /  0.0mm
23:30 39.4 °F /  4.1 °C 38.5 °F /  3.6 °C 30.2in /  1022.9hPa East 4.9mph /  7.9km/h 8.1mph /  13.0km/h 96% 0in /  0.0mm
23:35 39.4 °F /  4.1 °C 38.5 °F /  3.6 °C 30.2in /  1022.9hPa ENE 4.3mph /  6.9km/h 8.1mph /  13.0km/h 96% 0in /  0.0mm
23:40 39.4 °F /  4.1 °C 38.5 °F /  3.6 °C 30.2in /  1021.9hPa NE 4.9mph /  7.9km/h 7.8mph /  12.6km/h 96% 0in /  0.0mm
23:45 39.4 °F /  4.1 °C 38.5 °F /  3.6 °C 30.2in /  1021.9hPa ENE 5.8mph /  9.3km/h 7.6mph /  12.2km/h 96% 0in /  0.0mm
23:50 39.4 °F /  4.1 °C 38.5 °F /  3.6 °C 30.2in /  1021.9hPa NE 3.6mph /  5.8km/h 7.6mph /  12.2km/h 96% 0in /  0.0mm
23:55 39.4 °F /  4.1 °C 38.5 °F /  3.6 °C 30.2in /  1021.9hPa ENE 4.9mph /  7.9km/h 8.7mph /  14.0km/h 96% 0in /  0.0mm
Données Historique de Météo Turbie

Mise a jour : 24/05/2018 10:02:26
Généré par Cumulus 1.9.4 (1099)